createdAt,value
2018-08-20T00:01:47.662Z,64.27
2018-08-20T00:04:25.138Z,64.93
2018-08-20T00:06:59.297Z,67.07
2018-08-20T00:09:38.506Z,66.80
2018-08-20T00:12:12.034Z,66.97
2018-08-20T00:14:42.230Z,64.37
2018-08-20T00:17:13.362Z,65.37
2018-08-20T00:19:43.665Z,67.17
2018-08-20T00:22:15.175Z,65.63
2018-08-20T00:24:50.206Z,64.67
2018-08-20T00:27:21.789Z,66.17
2018-08-20T00:29:52.187Z,66.53
2018-08-20T00:32:24.990Z,67.27
2018-08-20T00:34:55.542Z,65.53
2018-08-20T00:37:26.050Z,66.20
2018-08-20T00:39:56.799Z,66.33
2018-08-20T00:42:27.885Z,65.60
2018-08-20T00:44:58.128Z,68.37
2018-08-20T00:47:29.857Z,67.77
2018-08-20T00:50:00.212Z,64.73
2018-08-20T00:52:32.249Z,66.47
2018-08-20T00:55:03.761Z,66.87
2018-08-20T00:57:35.046Z,66.33
2018-08-20T01:00:05.450Z,66.00
2018-08-20T01:02:35.651Z,64.57
2018-08-20T01:05:07.737Z,65.17
2018-08-20T01:07:39.266Z,66.83
2018-08-20T01:10:09.810Z,66.77
2018-08-20T01:12:40.225Z,66.93
2018-08-20T01:15:14.643Z,64.50
2018-08-20T01:17:48.805Z,65.53
2018-08-20T01:20:19.226Z,68.37
2018-08-20T01:22:50.943Z,66.40
2018-08-20T01:25:23.563Z,66.13
2018-08-20T01:27:54.964Z,67.43
2018-08-20T01:30:25.580Z,68.33
2018-08-20T01:33:16.259Z,64.10
2018-08-20T01:35:46.505Z,66.20
2018-08-20T01:38:16.953Z,63.97
2018-08-20T01:40:47.485Z,66.80
2018-08-20T01:43:17.729Z,68.27
2018-08-20T01:45:47.962Z,66.60
2018-08-20T01:48:18.025Z,67.50
2018-08-20T01:50:49.169Z,65.20
2018-08-20T01:53:19.837Z,64.50
2018-08-20T01:55:49.924Z,63.87
2018-08-20T01:58:22.211Z,64.17
2018-08-20T02:00:52.395Z,66.30
2018-08-20T02:03:23.683Z,64.63
2018-08-20T02:05:54.173Z,65.03
2018-08-20T02:08:24.198Z,64.10
2018-08-20T02:10:55.088Z,65.03
2018-08-20T02:13:26.334Z,64.40
2018-08-20T02:15:56.332Z,67.87
2018-08-20T02:18:26.225Z,63.50
2018-08-20T02:20:56.426Z,64.60
2018-08-20T02:23:27.654Z,63.30
2018-08-20T02:25:58.658Z,63.47
2018-08-20T02:28:28.732Z,63.63
2018-08-20T02:31:00.245Z,66.07
2018-08-20T02:33:30.304Z,63.60
2018-08-20T02:36:00.410Z,63.00
2018-08-20T02:38:31.563Z,64.47
2018-08-20T02:41:01.884Z,65.17
2018-08-20T02:43:33.765Z,65.80
2018-08-20T02:46:04.679Z,63.57
2018-08-20T02:48:36.487Z,63.17
2018-08-20T02:51:07.127Z,63.43
2018-08-20T02:53:37.163Z,64.20
2018-08-20T02:56:08.308Z,65.07
2018-08-20T02:58:45.263Z,64.83
2018-08-20T03:01:17.865Z,86.17
2018-08-20T03:03:48.224Z,66.60
2018-08-20T03:06:19.434Z,64.17
2018-08-20T03:08:51.357Z,64.80
2018-08-20T03:11:23.158Z,63.43
2018-08-20T03:13:53.878Z,62.30
2018-08-20T03:16:24.802Z,63.33
2018-08-20T03:18:55.692Z,65.33
2018-08-20T03:21:26.828Z,64.80
2018-08-20T03:23:57.534Z,64.43
2018-08-20T03:26:28.612Z,62.50
2018-08-20T03:28:59.970Z,64.13
2018-08-20T03:31:30.620Z,62.97
2018-08-20T03:34:03.263Z,64.00
2018-08-20T03:36:37.066Z,64.50
2018-08-20T03:39:09.317Z,64.60
2018-08-20T03:41:39.518Z,65.33
2018-08-20T03:44:09.694Z,64.93
2018-08-20T03:46:40.230Z,64.17
2018-08-20T03:49:10.189Z,64.87
2018-08-20T03:51:41.186Z,63.27
2018-08-20T03:54:11.383Z,65.20
2018-08-20T03:56:41.574Z,65.67
2018-08-20T03:59:25.452Z,65.03
2018-08-20T04:01:55.816Z,64.63
2018-08-20T04:04:26.588Z,65.83
2018-08-20T04:06:57.783Z,63.07
2018-08-20T04:09:29.157Z,66.10
2018-08-20T04:11:59.915Z,65.23
2018-08-20T04:14:36.644Z,64.50
2018-08-20T04:17:06.980Z,64.17
2018-08-20T04:19:38.544Z,64.97
2018-08-20T04:22:09.827Z,66.53
2018-08-20T04:24:40.117Z,65.27
2018-08-20T04:27:10.493Z,64.00
2018-08-20T04:29:41.808Z,65.00
2018-08-20T04:32:12.029Z,65.60
2018-08-20T04:34:42.070Z,62.87
2018-08-20T04:37:18.797Z,63.50
2018-08-20T04:39:49.347Z,64.40
2018-08-20T04:42:19.359Z,65.03
2018-08-20T04:44:49.873Z,64.67
2018-08-20T04:47:22.043Z,64.30
2018-08-20T04:49:52.233Z,63.83
2018-08-20T04:52:22.691Z,66.60
2018-08-20T04:54:54.698Z,63.07
2018-08-20T04:57:25.115Z,62.90
2018-08-20T04:59:55.286Z,67.33
2018-08-20T05:02:25.346Z,63.73
2018-08-20T05:04:57.048Z,64.23
2018-08-20T05:07:27.870Z,62.23
2018-08-20T05:09:58.427Z,62.03
2018-08-20T05:12:29.525Z,62.83
2018-08-20T05:15:00.939Z,63.07
2018-08-20T05:17:31.906Z,63.70
2018-08-20T05:20:04.079Z,67.20
2018-08-20T05:22:34.164Z,64.03
2018-08-20T05:25:04.936Z,64.73
2018-08-20T05:27:35.337Z,63.80
2018-08-20T05:30:07.549Z,63.60
2018-08-20T05:32:38.458Z,67.60
2018-08-20T05:35:17.560Z,63.87
2018-08-20T05:37:48.132Z,62.13
2018-08-20T05:40:18.883Z,64.00
2018-08-20T05:42:48.946Z,65.93
2018-08-20T05:45:19.424Z,65.13
2018-08-20T05:47:49.665Z,66.87
2018-08-20T05:50:19.972Z,63.13
2018-08-20T05:52:50.327Z,63.33
2018-08-20T05:55:21.972Z,62.50
2018-08-20T05:57:52.021Z,64.70
2018-08-20T06:00:22.890Z,65.60
2018-08-20T06:02:53.154Z,62.47
2018-08-20T06:05:23.477Z,63.80
2018-08-20T06:07:53.775Z,62.67
2018-08-20T06:10:24.233Z,67.17
2018-08-20T06:12:54.378Z,67.93
2018-08-20T06:15:25.659Z,65.37
2018-08-20T06:17:55.878Z,68.00
2018-08-20T06:20:27.881Z,64.63
2018-08-20T06:22:58.506Z,64.73
2018-08-20T06:25:28.528Z,65.97
2018-08-20T06:27:58.715Z,65.73
2018-08-20T06:30:30.656Z,65.57
2018-08-20T06:33:01.819Z,64.37
2018-08-20T06:35:32.094Z,66.30
2018-08-20T06:38:02.285Z,66.73
2018-08-20T06:40:32.403Z,67.50
2018-08-20T06:43:03.120Z,68.13
2018-08-20T06:45:33.457Z,65.10
2018-08-20T06:48:03.844Z,66.93
2018-08-20T06:50:34.789Z,63.97
2018-08-20T06:53:05.521Z,68.40
2018-08-20T06:55:36.354Z,68.13
2018-08-20T06:58:06.660Z,68.00
2018-08-20T07:00:37.322Z,114.00
2018-08-20T07:03:07.656Z,66.40
2018-08-20T07:05:37.926Z,67.50
2018-08-20T07:08:08.210Z,70.00
2018-08-20T07:10:52.820Z,69.67
2018-08-20T07:13:33.153Z,68.70
2018-08-20T07:16:05.492Z,68.13
2018-08-20T07:18:37.100Z,69.20
2018-08-20T07:21:09.058Z,68.40
2018-08-20T07:23:46.431Z,69.33
2018-08-20T07:26:16.550Z,68.77
2018-08-20T07:28:47.259Z,72.50
2018-08-20T07:31:17.624Z,69.17
2018-08-20T07:33:48.061Z,70.43
2018-08-20T07:36:18.082Z,71.47
2018-08-20T07:38:48.978Z,70.67
2018-08-20T07:41:19.533Z,71.73
2018-08-20T07:43:49.823Z,71.27
2018-08-20T07:46:19.990Z,73.00
2018-08-20T07:48:50.443Z,71.33
2018-08-20T07:51:20.586Z,71.73
2018-08-20T07:53:51.097Z,71.53
2018-08-20T07:56:21.336Z,73.33
2018-08-20T07:58:52.026Z,70.40
2018-08-20T08:01:22.819Z,72.53
2018-08-20T08:03:53.869Z,70.60
2018-08-20T08:06:23.892Z,72.87
2018-08-20T08:08:54.627Z,72.80
2018-08-20T08:11:25.438Z,73.93
2018-08-20T08:13:57.178Z,73.47
2018-08-20T08:16:27.143Z,74.10
2018-08-20T08:18:58.230Z,74.20
2018-08-20T08:21:28.403Z,74.37
2018-08-20T08:23:59.321Z,77.37
2018-08-20T08:26:32.279Z,73.87
2018-08-20T08:29:04.515Z,71.97
2018-08-20T08:31:35.312Z,73.90
2018-08-20T08:34:08.113Z,74.97
2018-08-20T08:36:38.694Z,77.53
2018-08-20T08:39:11.836Z,76.47
2018-08-20T08:41:43.820Z,75.33
2018-08-20T08:44:15.458Z,73.47
2018-08-20T08:46:45.571Z,73.03
2018-08-20T08:49:16.063Z,77.07
2018-08-20T08:51:46.286Z,74.53
2018-08-20T08:54:17.227Z,74.03
2018-08-20T08:56:48.299Z,73.90
2018-08-20T08:59:19.038Z,76.73
2018-08-20T09:01:49.213Z,76.73
2018-08-20T09:04:19.356Z,77.93
2018-08-20T09:06:49.523Z,75.53
2018-08-20T09:09:19.634Z,75.80
2018-08-20T09:11:50.745Z,74.60
2018-08-20T09:14:21.494Z,75.00
2018-08-20T09:16:52.259Z,75.20
2018-08-20T09:19:22.434Z,73.57
2018-08-20T09:21:53.426Z,72.40
2018-08-20T09:24:26.434Z,73.40
2018-08-20T09:26:59.946Z,70.93
2018-08-20T09:29:31.650Z,75.97
2018-08-20T09:32:02.733Z,72.20
2018-08-20T09:34:33.172Z,72.67
2018-08-20T09:37:04.031Z,74.00
2018-08-20T09:39:34.188Z,74.77
2018-08-20T09:42:06.484Z,77.73
2018-08-20T09:44:39.050Z,79.13
2018-08-20T09:47:09.026Z,73.17
2018-08-20T09:49:39.284Z,71.73
2018-08-20T09:52:09.912Z,74.13
2018-08-20T09:54:40.914Z,72.97
2018-08-20T09:57:11.248Z,74.73
2018-08-20T09:59:41.465Z,73.77
2018-08-20T10:02:12.492Z,73.17
2018-08-20T10:04:42.854Z,74.17
2018-08-20T10:07:13.520Z,72.83
2018-08-20T10:09:45.219Z,73.37
2018-08-20T10:12:15.536Z,75.87
2018-08-20T10:14:45.654Z,73.93
2018-08-20T10:17:16.941Z,74.63
2018-08-20T10:19:47.662Z,76.30
2018-08-20T10:22:18.296Z,76.73
2018-08-20T10:24:49.186Z,77.63
2018-08-20T10:27:19.303Z,73.23
2018-08-20T10:29:49.635Z,72.33
2018-08-20T10:32:20.007Z,72.33
2018-08-20T10:34:50.503Z,76.37
2018-08-20T10:37:21.256Z,75.93
2018-08-20T10:39:51.228Z,77.27
2018-08-20T10:42:21.278Z,75.60
2018-08-20T10:44:55.778Z,72.50
2018-08-20T10:47:27.558Z,73.10
2018-08-20T10:49:58.298Z,74.43
2018-08-20T10:52:28.586Z,76.10
2018-08-20T10:54:58.871Z,73.50
2018-08-20T10:57:29.450Z,73.20
2018-08-20T11:00:00.558Z,72.83
2018-08-20T11:02:30.903Z,73.10
2018-08-20T11:05:01.552Z,74.47
2018-08-20T11:07:33.173Z,75.20
2018-08-20T11:10:04.412Z,74.97
2018-08-20T11:12:34.690Z,73.50
2018-08-20T11:15:05.489Z,73.83
2018-08-20T11:17:36.321Z,76.60
2018-08-20T11:20:10.116Z,76.00
2018-08-20T11:22:42.774Z,73.10
2018-08-20T11:25:13.717Z,73.50
2018-08-20T11:27:44.663Z,74.67
2018-08-20T11:30:15.649Z,74.37
2018-08-20T11:32:45.715Z,75.07
2018-08-20T11:35:16.115Z,76.23
2018-08-20T11:37:46.185Z,73.87
2018-08-20T11:40:19.241Z,73.37
2018-08-20T11:42:49.225Z,78.23
2018-08-20T11:45:19.554Z,78.73
2018-08-20T11:47:49.761Z,73.67
2018-08-20T11:50:20.324Z,75.67
2018-08-20T11:52:51.665Z,75.10
2018-08-20T11:55:22.140Z,74.50
2018-08-20T11:57:53.319Z,76.90
2018-08-20T12:00:23.259Z,78.83
2018-08-20T12:02:53.799Z,74.80
2018-08-20T12:05:24.086Z,72.63
2018-08-20T12:07:56.288Z,72.70
2018-08-20T12:10:27.256Z,74.77
2018-08-20T12:12:58.102Z,76.83
2018-08-20T12:15:28.505Z,73.67
2018-08-20T12:17:59.526Z,74.70
2018-08-20T12:20:29.624Z,75.73
2018-08-20T12:22:59.662Z,75.00
2018-08-20T12:25:29.984Z,79.20
2018-08-20T12:28:00.205Z,77.17
2018-08-20T12:30:31.064Z,74.67
2018-08-20T12:33:01.956Z,75.37
2018-08-20T12:35:32.434Z,75.57
2018-08-20T12:38:02.835Z,73.97
2018-08-20T12:40:33.511Z,79.57
2018-08-20T12:43:04.355Z,77.40
2018-08-20T12:45:34.296Z,77.13
2018-08-20T12:48:05.411Z,78.23
2018-08-20T12:50:37.460Z,80.20
2018-08-20T12:53:07.849Z,78.83
2018-08-20T12:55:38.942Z,76.50
2018-08-20T12:58:12.162Z,80.43
2018-08-20T13:00:42.834Z,75.97
2018-08-20T13:03:16.067Z,76.73
2018-08-20T13:05:49.760Z,77.37
2018-08-20T13:08:19.839Z,75.57
2018-08-20T13:10:50.161Z,77.97
2018-08-20T13:13:20.950Z,74.97
2018-08-20T13:15:51.762Z,73.67
2018-08-20T13:18:21.749Z,75.27
2018-08-20T13:20:52.000Z,87.77
2018-08-20T13:23:22.265Z,74.80
2018-08-20T13:25:53.267Z,74.87
2018-08-20T13:28:23.706Z,73.83
2018-08-20T13:30:53.798Z,75.23
2018-08-20T13:33:23.980Z,75.80
2018-08-20T13:35:54.702Z,75.43
2018-08-20T13:38:26.013Z,71.83
2018-08-20T13:40:57.108Z,74.00
2018-08-20T13:43:27.870Z,74.00
2018-08-20T13:45:57.997Z,74.10
2018-08-20T13:48:28.258Z,74.93
2018-08-20T13:50:58.415Z,73.97
2018-08-20T13:53:29.523Z,73.90
2018-08-20T13:55:59.724Z,75.07
2018-08-20T13:58:30.615Z,71.53
2018-08-20T14:01:00.811Z,75.30
2018-08-20T14:03:31.312Z,74.63
2018-08-20T14:06:02.223Z,74.93
2018-08-20T14:08:32.327Z,72.37
2018-08-20T14:11:02.760Z,74.87
2018-08-20T14:13:32.654Z,78.67
2018-08-20T14:16:02.909Z,79.90
2018-08-20T14:18:33.514Z,71.47
2018-08-20T14:21:09.385Z,72.17
2018-08-20T14:23:44.088Z,70.80
2018-08-20T14:26:14.780Z,73.40
2018-08-20T14:28:45.070Z,75.77
2018-08-20T14:31:15.442Z,71.87
2018-08-20T14:33:46.084Z,70.87
2018-08-20T14:36:17.263Z,72.70
2018-08-20T14:38:47.272Z,71.83
2018-08-20T14:41:17.718Z,76.43
2018-08-20T14:43:47.758Z,74.20
2018-08-20T14:46:21.869Z,70.60
2018-08-20T14:48:53.639Z,73.77
2018-08-20T14:51:26.606Z,73.53
2018-08-20T14:53:57.543Z,75.53
2018-08-20T14:56:27.628Z,72.40
2018-08-20T14:58:57.521Z,71.60
2018-08-20T15:01:28.639Z,87.20
2018-08-20T15:03:58.732Z,73.13
2018-08-20T15:06:28.860Z,73.53
2018-08-20T15:08:59.061Z,72.60
2018-08-20T15:11:29.435Z,72.57
2018-08-20T15:13:59.552Z,73.83
2018-08-20T15:16:30.914Z,75.93
2018-08-20T15:19:01.860Z,71.97
2018-08-20T15:21:32.315Z,74.83
2018-08-20T15:24:03.527Z,73.60
2018-08-20T15:26:33.838Z,72.40
2018-08-20T15:29:04.137Z,72.23
2018-08-20T15:31:34.909Z,71.03
2018-08-20T15:34:05.843Z,74.53
2018-08-20T15:36:36.033Z,73.13
2018-08-20T15:39:08.763Z,72.97
2018-08-20T15:41:39.044Z,70.53
2018-08-20T15:44:11.102Z,73.43
2018-08-20T15:46:41.748Z,70.47
2018-08-20T15:49:12.786Z,73.43
2018-08-20T15:51:43.411Z,71.70
2018-08-20T15:54:13.474Z,71.47
2018-08-20T15:56:44.689Z,71.00
2018-08-20T15:59:16.556Z,70.53
2018-08-20T16:01:46.777Z,73.00
2018-08-20T16:04:17.999Z,76.57
2018-08-20T16:06:48.261Z,73.00
2018-08-20T16:09:19.264Z,78.23
2018-08-20T16:11:49.498Z,73.30
2018-08-20T16:14:19.812Z,72.13
2018-08-20T16:16:50.923Z,76.67
2018-08-20T16:19:21.897Z,76.03
2018-08-20T16:21:53.736Z,75.87
2018-08-20T16:24:29.160Z,74.40
2018-08-20T16:27:02.793Z,73.90
2018-08-20T16:29:34.118Z,74.53
2018-08-20T16:32:04.676Z,74.93
2018-08-20T16:34:38.791Z,72.77
2018-08-20T16:37:09.622Z,72.57
2018-08-20T16:39:39.899Z,73.03
2018-08-20T16:42:09.918Z,71.50
2018-08-20T16:44:40.419Z,69.83
2018-08-20T16:47:10.690Z,68.30
2018-08-20T16:49:40.948Z,72.53
2018-08-20T16:52:11.778Z,72.60
2018-08-20T16:54:41.859Z,72.07
2018-08-20T16:57:12.536Z,68.03
2018-08-20T16:59:42.876Z,74.50
2018-08-20T17:02:20.174Z,70.30
2018-08-20T17:04:50.696Z,71.03
2018-08-20T17:07:20.724Z,73.67
2018-08-20T17:09:50.994Z,70.97
2018-08-20T17:12:22.270Z,72.03
2018-08-20T17:14:53.348Z,74.00
2018-08-20T17:17:25.033Z,72.50
2018-08-20T17:19:55.136Z,72.60
2018-08-20T17:22:25.309Z,74.13
2018-08-20T17:24:57.344Z,72.77
2018-08-20T17:27:28.692Z,70.20
2018-08-20T17:29:59.808Z,70.13
2018-08-20T17:32:31.513Z,70.90
2018-08-20T17:35:12.238Z,73.30
2018-08-20T17:37:43.095Z,71.13
2018-08-20T17:40:13.486Z,76.07
2018-08-20T17:42:45.525Z,70.73
2018-08-20T17:45:15.954Z,71.33
2018-08-20T17:47:46.367Z,72.10
2018-08-20T17:50:38.604Z,71.43
2018-08-20T17:53:10.270Z,72.47
2018-08-20T17:55:41.375Z,72.73
2018-08-20T17:58:13.833Z,70.03
2018-08-20T18:00:50.799Z,70.87
2018-08-20T18:03:26.088Z,72.37
2018-08-20T18:06:02.056Z,73.13
2018-08-20T18:08:34.241Z,72.07
2018-08-20T18:11:05.179Z,72.13
2018-08-20T18:13:47.444Z,74.13
2018-08-20T18:16:18.975Z,72.63
2018-08-20T18:18:53.136Z,72.73
2018-08-20T18:21:23.506Z,72.43
2018-08-20T18:23:53.783Z,70.30
2018-08-20T18:26:30.381Z,71.60
2018-08-20T18:29:01.626Z,72.30
2018-08-20T18:31:31.747Z,71.10
2018-08-20T18:34:01.755Z,72.03
2018-08-20T18:36:32.004Z,70.83
2018-08-20T18:39:12.696Z,72.53
2018-08-20T18:42:19.499Z,72.43
2018-08-20T18:44:51.037Z,69.27
2018-08-20T18:47:22.332Z,72.03
2018-08-20T18:49:58.086Z,71.47
2018-08-20T18:52:32.214Z,68.47
2018-08-20T18:55:02.996Z,69.37
2018-08-20T18:57:35.798Z,68.70
2018-08-20T19:00:15.261Z,73.27
2018-08-20T19:02:50.988Z,71.97
2018-08-20T19:05:22.401Z,70.70
2018-08-20T19:07:53.548Z,71.67
2018-08-20T19:10:33.025Z,71.37
2018-08-20T19:13:05.292Z,70.27
2018-08-20T19:15:55.914Z,70.87
2018-08-20T19:18:36.516Z,72.83
2018-08-20T19:21:14.651Z,70.97
2018-08-20T19:23:45.810Z,70.77
2018-08-20T19:26:24.856Z,70.47
2018-08-20T19:28:57.494Z,72.97
2018-08-20T19:31:32.490Z,69.50
2018-08-20T19:34:06.570Z,68.60
2018-08-20T19:36:38.636Z,70.73
2018-08-20T19:39:11.306Z,70.80
2018-08-20T19:41:44.503Z,67.83
2018-08-20T19:44:14.914Z,69.93
2018-08-20T19:46:45.438Z,68.50
2018-08-20T19:49:16.161Z,65.00
2018-08-20T19:51:47.238Z,69.90
2018-08-20T19:54:17.942Z,74.13
2018-08-20T19:56:47.956Z,70.07
2018-08-20T19:59:27.538Z,70.67
2018-08-20T20:01:57.829Z,70.30
2018-08-20T20:04:28.082Z,70.80
2018-08-20T20:06:58.968Z,71.17
2018-08-20T20:09:29.165Z,73.37
2018-08-20T20:11:59.367Z,70.27
2018-08-20T20:14:34.569Z,69.87
2018-08-20T20:17:04.833Z,73.93
2018-08-20T20:19:35.571Z,72.90
2018-08-20T20:22:08.897Z,70.97
2018-08-20T20:24:39.247Z,70.03
2018-08-20T20:27:10.861Z,71.43
2018-08-20T20:29:41.673Z,70.00
2018-08-20T20:32:14.488Z,69.60
2018-08-20T20:34:45.834Z,68.97
2018-08-20T20:37:16.066Z,72.53
2018-08-20T20:39:54.382Z,71.10
2018-08-20T20:42:24.501Z,71.70
2018-08-20T20:44:58.867Z,71.47
2018-08-20T20:47:29.841Z,69.63
2018-08-20T20:50:00.109Z,69.90
2018-08-20T20:52:30.413Z,70.57
2018-08-20T20:55:00.718Z,70.50
2018-08-20T20:57:31.149Z,71.87
2018-08-20T21:00:01.275Z,71.10
2018-08-20T21:02:31.630Z,69.70
2018-08-20T21:05:06.232Z,71.10
2018-08-20T21:07:36.957Z,71.80
2018-08-20T21:10:08.840Z,72.30
2018-08-20T21:12:38.834Z,69.27
2018-08-20T21:15:10.553Z,68.73
2018-08-20T21:17:40.646Z,70.57
2018-08-20T21:20:11.278Z,69.17
2018-08-20T21:22:42.446Z,70.20
2018-08-20T21:25:12.943Z,70.70
2018-08-20T21:27:44.425Z,69.53
2018-08-20T21:30:15.158Z,68.87
2018-08-20T21:32:45.355Z,68.93
2018-08-20T21:35:16.418Z,74.07
2018-08-20T21:37:47.132Z,74.63
2018-08-20T21:40:21.576Z,72.30
2018-08-20T21:42:51.705Z,69.97
2018-08-20T21:45:22.635Z,68.80
2018-08-20T21:47:54.299Z,70.27
2018-08-20T21:50:25.488Z,71.43
2018-08-20T21:52:55.600Z,67.90
2018-08-20T21:55:25.889Z,68.60
2018-08-20T21:57:57.737Z,67.67
2018-08-20T22:00:30.332Z,71.67
2018-08-20T22:03:01.235Z,71.77
2018-08-20T22:05:33.169Z,72.57
2018-08-20T22:08:04.087Z,70.07
2018-08-20T22:10:34.334Z,70.03
2018-08-20T22:13:04.539Z,67.17
2018-08-20T22:15:35.043Z,71.37
2018-08-20T22:18:05.290Z,72.73
2018-08-20T22:20:35.789Z,69.30
2018-08-20T22:23:24.948Z,67.67
2018-08-20T22:25:39.608Z,68.50
2018-08-20T22:28:10.491Z,70.37
2018-08-20T22:30:43.701Z,70.10
2018-08-20T22:33:15.192Z,66.83
2018-08-20T22:35:45.780Z,68.60
2018-08-20T22:38:16.142Z,68.27
2018-08-20T22:40:48.695Z,68.40
2018-08-20T22:43:19.967Z,70.60
2018-08-20T22:45:50.617Z,70.53
2018-08-20T22:48:21.073Z,66.70
2018-08-20T22:51:17.768Z,70.00
2018-08-20T22:53:57.400Z,69.03
2018-08-20T22:56:30.338Z,66.07
2018-08-20T22:59:07.798Z,68.37
2018-08-20T23:01:38.395Z,68.73
2018-08-20T23:04:08.938Z,68.37
2018-08-20T23:06:40.960Z,66.57
2018-08-20T23:09:32.346Z,65.23
2018-08-20T23:12:03.060Z,68.07
2018-08-20T23:14:35.431Z,66.93
2018-08-20T23:17:05.411Z,65.40
2018-08-20T23:19:37.095Z,66.30
2018-08-20T23:22:08.194Z,67.20
2018-08-20T23:24:44.053Z,67.50
2018-08-20T23:27:14.364Z,64.90
2018-08-20T23:29:45.291Z,65.53
2018-08-20T23:32:15.861Z,65.33
2018-08-20T23:34:47.053Z,64.93
2018-08-20T23:37:17.087Z,69.37
2018-08-20T23:39:47.207Z,68.47
2018-08-20T23:42:18.104Z,65.93
2018-08-20T23:44:50.508Z,65.97
2018-08-20T23:47:21.671Z,65.73
2018-08-20T23:49:52.286Z,68.17
2018-08-20T23:52:22.974Z,68.73
2018-08-20T23:54:53.852Z,68.00
2018-08-20T23:57:24.385Z,66.73
2018-08-20T23:59:54.641Z,67.33
